Aeroporto :
LOGIN :

Iscrizione | Disclaimer

   EN    FR    IT 

 










Sommario :    VFR   VFR Marginale   IFR   IFR Intensivo   IFR Molto Intensivo
Visibilità : 
Base nubi : 
>= 8 km
>= 3000ft
5 / 8 km
1000 / 3000 ft
1500m / 5 km
500 / 1000 ft
800 / 1500m
200 / 500 ft
< 800m
< 200 ft
Simboli :   Temporali  Nebbia  Neve Forte  Precipitazioni Forti  Vento > 20 kt
SIGMETs :   Varie  Temporali  Ghiacco  Turbolenza  Onda orograficha  Ceneri Vulcaniche






- Altitudine del aeroporto : 364 ft


LFAQ - Albert Bray

ULTIMO METAR :
  • 202100Z AUTO 28012KT CAVOK 05/02 Q1021

METARs OBSOLETI :
  • 202030Z AUTO 28015KT CAVOK 05/02 Q1019
  • 202000Z AUTO 28018G29KT 9999 FEW025 06/02 Q1019
  • 201930Z AUTO 27015G30KT 9999 FEW018/// BKN029/// BKN040/// ///TCU 05/04 Q1018
  • 201900Z AUTO 28016KT 9999 FEW022 06/04 Q1017
  • 201830Z AUTO 28018KT 9999 FEW024 SCT078 BKN100 07/05 Q1016 TEMPO 28020G40KT 4000 SHRA BKN013TCU

TAF TAF LFAQ
Valido dal 20 a 15 ore il 21 a 00 ore UTC


201400Z 2015/2024 21025G35KT 9999 BKN030
TEMPO 2015/2017 -RA BKN013
TEMPO 2017/2018 30025G47KT 2000 RA BKN008 OVC020TCU
FM201800 28020G30KT 9999 BKN020
TEMPO 2018/2020 28020G40KT 4000 SHRA BKN013TCU
BECMG 2020/2022 28012KT



MetMap, La meteo Aeronautica in un colpo d'occhio ! - Copyright ORBIFLY Dicembre 2007 - Disclaimer

ORBIFLY MET'MAP TEAM :

Programmazione e sviluppo : Alexandra Zaïnal
Concezione : Baudouin d'Aumeries
Aiuto per la programmazione : Marc-Olivier Méhu
Supporto tecnico e logistico : Manuel Goepfert
Aiuto per la traduzione : Arnaldo La Scala

Contatto : metmap@orbifly.com




FONTI E CREDITI :

   NOAA